sensor_id;sensor_type;location;lat;lon;timestamp;temperature;humidity
45137;DHT22;30894;51.740;19.498;2023-02-04T00:00:14;3.10;99.90
45137;DHT22;30894;51.740;19.498;2023-02-04T00:03:03;3.00;99.90
45137;DHT22;30894;51.740;19.498;2023-02-04T00:05:29;2.90;99.90
45137;DHT22;30894;51.740;19.498;2023-02-04T00:07:56;2.90;99.90
45137;DHT22;30894;51.740;19.498;2023-02-04T00:10:23;2.80;99.90
45137;DHT22;30894;51.740;19.498;2023-02-04T00:12:50;2.70;99.90
45137;DHT22;30894;51.740;19.498;2023-02-04T00:15:16;2.70;99.90
45137;DHT22;30894;51.740;19.498;2023-02-04T00:17:42;2.60;99.90
45137;DHT22;30894;51.740;19.498;2023-02-04T00:20:09;2.60;99.90
45137;DHT22;30894;51.740;19.498;2023-02-04T00:22:38;2.60;99.90
45137;DHT22;30894;51.740;19.498;2023-02-04T00:25:04;2.50;99.90
45137;DHT22;30894;51.740;19.498;2023-02-04T00:27:31;2.50;99.90
45137;DHT22;30894;51.740;19.498;2023-02-04T00:29:58;2.40;99.90
45137;DHT22;30894;51.740;19.498;2023-02-04T00:32:25;2.40;99.90
45137;DHT22;30894;51.740;19.498;2023-02-04T00:34:55;2.30;99.90
45137;DHT22;30894;51.740;19.498;2023-02-04T00:37:25;2.30;99.90
45137;DHT22;30894;51.740;19.498;2023-02-04T00:39:51;2.20;99.90
45137;DHT22;30894;51.740;19.498;2023-02-04T00:42:18;2.20;99.90
45137;DHT22;30894;51.740;19.498;2023-02-04T00:44:44;2.10;99.90
45137;DHT22;30894;51.740;19.498;2023-02-04T00:47:11;2.10;99.90
45137;DHT22;30894;51.740;19.498;2023-02-04T00:49:37;2.10;99.90
45137;DHT22;30894;51.740;19.498;2023-02-04T00:52:04;2.00;99.90
45137;DHT22;30894;51.740;19.498;2023-02-04T00:54:31;2.00;99.90
45137;DHT22;30894;51.740;19.498;2023-02-04T00:56:57;2.00;99.90
45137;DHT22;30894;51.740;19.498;2023-02-04T00:59:23;1.90;99.90
45137;DHT22;30894;51.740;19.498;2023-02-04T01:01:52;1.90;99.90
45137;DHT22;30894;51.740;19.498;2023-02-04T01:04:21;1.90;99.90
45137;DHT22;30894;51.740;19.498;2023-02-04T01:06:48;1.80;99.90
45137;DHT22;30894;51.740;19.498;2023-02-04T01:09:14;1.80;99.90
45137;DHT22;30894;51.740;19.498;2023-02-04T01:11:44;1.80;99.90
45137;DHT22;30894;51.740;19.498;2023-02-04T01:14:10;1.70;99.90
45137;DHT22;30894;51.740;19.498;2023-02-04T01:16:37;1.80;99.90
45137;DHT22;30894;51.740;19.498;2023-02-04T01:19:03;1.80;99.90
45137;DHT22;30894;51.740;19.498;2023-02-04T01:21:36;1.80;99.90
45137;DHT22;30894;51.740;19.498;2023-02-04T01:24:03;1.80;99.90
45137;DHT22;30894;51.740;19.498;2023-02-04T01:26:30;1.70;99.90
45137;DHT22;30894;51.740;19.498;2023-02-04T01:28:56;1.70;99.90
45137;DHT22;30894;51.740;19.498;2023-02-04T01:31:24;1.70;99.90
45137;DHT22;30894;51.740;19.498;2023-02-04T01:33:50;1.70;99.90
45137;DHT22;30894;51.740;19.498;2023-02-04T01:36:17;1.60;99.90
45137;DHT22;30894;51.740;19.498;2023-02-04T01:38:50;1.60;99.90
45137;DHT22;30894;51.740;19.498;2023-02-04T01:41:17;1.60;99.90
45137;DHT22;30894;51.740;19.498;2023-02-04T01:43:45;1.60;99.90
45137;DHT22;30894;51.740;19.498;2023-02-04T01:46:12;1.60;99.90
45137;DHT22;30894;51.740;19.498;2023-02-04T01:48:39;1.50;99.90
45137;DHT22;30894;51.740;19.498;2023-02-04T01:51:13;1.50;99.90
45137;DHT22;30894;51.740;19.498;2023-02-04T01:53:41;1.50;99.90
45137;DHT22;30894;51.740;19.498;2023-02-04T07:41:20;-0.70;99.90
45137;DHT22;30894;51.740;19.498;2023-02-04T07:43:48;1.20;99.90
45137;DHT22;30894;51.740;19.498;2023-02-04T07:46:14;1.50;99.90
45137;DHT22;30894;51.740;19.498;2023-02-04T07:48:41;1.80;99.90
45137;DHT22;30894;51.740;19.498;2023-02-04T07:51:07;2.00;99.90
45137;DHT22;30894;51.740;19.498;2023-02-04T07:53:33;2.20;99.90
45137;DHT22;30894;51.740;19.498;2023-02-04T07:56:00;2.40;99.90
45137;DHT22;30894;51.740;19.498;2023-02-04T07:58:26;2.50;99.90
45137;DHT22;30894;51.740;19.498;2023-02-04T08:00:53;2.60;99.90
45137;DHT22;30894;51.740;19.498;2023-02-04T08:03:20;2.80;99.90
45137;DHT22;30894;51.740;19.498;2023-02-04T08:05:47;2.90;99.90
45137;DHT22;30894;51.740;19.498;2023-02-04T08:08:15;3.10;99.90
45137;DHT22;30894;51.740;19.498;2023-02-04T08:10:44;3.20;99.90
45137;DHT22;30894;51.740;19.498;2023-02-04T08:13:11;3.30;99.90
45137;DHT22;30894;51.740;19.498;2023-02-04T08:15:38;3.30;99.90
45137;DHT22;30894;51.740;19.498;2023-02-04T08:18:06;3.30;99.90
45137;DHT22;30894;51.740;19.498;2023-02-04T08:20:32;3.40;99.90
45137;DHT22;30894;51.740;19.498;2023-02-04T08:23:00;3.50;99.90
45137;DHT22;30894;51.740;19.498;2023-02-04T08:25:32;3.70;99.90
45137;DHT22;30894;51.740;19.498;2023-02-04T08:28:00;3.80;99.90
45137;DHT22;30894;51.740;19.498;2023-02-04T08:30:26;4.00;99.90
45137;DHT22;30894;51.740;19.498;2023-02-04T08:32:56;4.20;99.90
45137;DHT22;30894;51.740;19.498;2023-02-04T08:35:22;4.30;99.90
45137;DHT22;30894;51.740;19.498;2023-02-04T08:37:49;4.40;99.90
45137;DHT22;30894;51.740;19.498;2023-02-04T08:40:15;4.50;99.90
45137;DHT22;30894;51.740;19.498;2023-02-04T08:42:42;4.60;99.90
45137;DHT22;30894;51.740;19.498;2023-02-04T08:45:08;4.80;99.90
45137;DHT22;30894;51.740;19.498;2023-02-04T08:47:35;4.90;99.90
45137;DHT22;30894;51.740;19.498;2023-02-04T08:50:02;5.00;99.90
45137;DHT22;30894;51.740;19.498;2023-02-04T08:52:28;5.10;99.90
45137;DHT22;30894;51.740;19.498;2023-02-04T08:54:54;5.30;99.90
45137;DHT22;30894;51.740;19.498;2023-02-04T08:57:21;5.40;99.90
45137;DHT22;30894;51.740;19.498;2023-02-04T08:59:47;5.60;99.90
45137;DHT22;30894;51.740;19.498;2023-02-04T09:02:14;5.80;99.90
45137;DHT22;30894;51.740;19.498;2023-02-04T09:04:40;6.00;99.90
45137;DHT22;30894;51.740;19.498;2023-02-04T09:07:07;6.10;99.90
45137;DHT22;30894;51.740;19.498;2023-02-04T09:09:33;6.30;99.90
45137;DHT22;30894;51.740;19.498;2023-02-04T09:12:04;6.50;99.90
45137;DHT22;30894;51.740;19.498;2023-02-04T09:14:57;6.70;99.90
45137;DHT22;30894;51.740;19.498;2023-02-04T09:17:28;6.90;99.90
45137;DHT22;30894;51.740;19.498;2023-02-04T09:19:54;7.10;99.90
45137;DHT22;30894;51.740;19.498;2023-02-04T09:22:20;7.20;99.90
45137;DHT22;30894;51.740;19.498;2023-02-04T09:24:48;7.40;99.90
45137;DHT22;30894;51.740;19.498;2023-02-04T09:27:25;7.60;99.90
45137;DHT22;30894;51.740;19.498;2023-02-04T09:30:14;7.80;99.90
45137;DHT22;30894;51.740;19.498;2023-02-04T09:32:55;8.00;99.90
45137;DHT22;30894;51.740;19.498;2023-02-04T09:35:28;7.60;99.90
45137;DHT22;30894;51.740;19.498;2023-02-04T09:38:00;7.10;99.90
45137;DHT22;30894;51.740;19.498;2023-02-04T09:40:54;6.70;99.90
45137;DHT22;30894;51.740;19.498;2023-02-04T09:43:35;6.40;99.90
45137;DHT22;30894;51.740;19.498;2023-02-04T09:46:42;6.40;99.90
45137;DHT22;30894;51.740;19.498;2023-02-04T09:49:38;6.20;99.90
45137;DHT22;30894;51.740;19.498;2023-02-04T09:52:30;6.00;99.90
45137;DHT22;30894;51.740;19.498;2023-02-04T09:55:23;5.80;99.90
45137;DHT22;30894;51.740;19.498;2023-02-04T09:58:17;5.60;99.90
45137;DHT22;30894;51.740;19.498;2023-02-04T10:01:17;5.60;99.90
45137;DHT22;30894;51.740;19.498;2023-02-04T10:04:46;5.70;99.90
45137;DHT22;30894;51.740;19.498;2023-02-04T10:07:18;5.50;99.90
45137;DHT22;30894;51.740;19.498;2023-02-04T10:09:52;5.30;99.90
45137;DHT22;30894;51.740;19.498;2023-02-04T10:12:25;5.00;99.90
45137;DHT22;30894;51.740;19.498;2023-02-04T10:14:54;4.70;99.90
45137;DHT22;30894;51.740;19.498;2023-02-04T10:17:23;4.40;99.90
45137;DHT22;30894;51.740;19.498;2023-02-04T10:19:49;4.10;99.90
45137;DHT22;30894;51.740;19.498;2023-02-04T10:22:22;3.90;99.90
45137;DHT22;30894;51.740;19.498;2023-02-04T10:25:19;3.70;99.90
45137;DHT22;30894;51.740;19.498;2023-02-04T10:28:05;3.60;99.90
45137;DHT22;30894;51.740;19.498;2023-02-04T10:30:47;3.40;99.90
45137;DHT22;30894;51.740;19.498;2023-02-04T11:00:57;3.20;99.90
45137;DHT22;30894;51.740;19.498;2023-02-04T11:04:59;3.20;99.90
45137;DHT22;30894;51.740;19.498;2023-02-04T11:13:20;3.10;99.90
45137;DHT22;30894;51.740;19.498;2023-02-04T11:17:18;3.10;99.90
45137;DHT22;30894;51.740;19.498;2023-02-04T11:24:42;2.80;99.90
45137;DHT22;30894;51.740;19.498;2023-02-04T11:27:37;3.10;99.90
45137;DHT22;30894;51.740;19.498;2023-02-04T11:30:29;3.70;99.90
45137;DHT22;30894;51.740;19.498;2023-02-04T11:33:21;4.50;99.90
45137;DHT22;30894;51.740;19.498;2023-02-04T11:36:07;4.50;99.90
45137;DHT22;30894;51.740;19.498;2023-02-04T11:38:53;4.40;99.90
45137;DHT22;30894;51.740;19.498;2023-02-04T11:41:29;4.00;99.90
45137;DHT22;30894;51.740;19.498;2023-02-04T11:44:00;3.60;99.90
45137;DHT22;30894;51.740;19.498;2023-02-04T11:46:28;3.80;99.90
45137;DHT22;30894;51.740;19.498;2023-02-04T11:49:23;4.20;99.90
45137;DHT22;30894;51.740;19.498;2023-02-04T11:52:26;4.40;99.90
45137;DHT22;30894;51.740;19.498;2023-02-04T11:55:01;4.60;99.90
45137;DHT22;30894;51.740;19.498;2023-02-04T11:57:38;4.70;99.90
45137;DHT22;30894;51.740;19.498;2023-02-04T12:00:29;4.60;99.90
45137;DHT22;30894;51.740;19.498;2023-02-04T12:03:31;4.30;99.90
45137;DHT22;30894;51.740;19.498;2023-02-04T12:06:04;3.80;99.90
45137;DHT22;30894;51.740;19.498;2023-02-04T12:08:35;4.00;99.90
45137;DHT22;30894;51.740;19.498;2023-02-04T12:11:27;4.20;99.90
45137;DHT22;30894;51.740;19.498;2023-02-04T12:14:09;4.20;99.90
45137;DHT22;30894;51.740;19.498;2023-02-04T12:16:49;4.30;99.90
45137;DHT22;30894;51.740;19.498;2023-02-04T12:19:16;5.10;99.90
45137;DHT22;30894;51.740;19.498;2023-02-04T12:21:43;5.30;99.90
45137;DHT22;30894;51.740;19.498;2023-02-04T12:24:13;5.10;99.90
45137;DHT22;30894;51.740;19.498;2023-02-04T12:26:45;4.90;99.90
45137;DHT22;30894;51.740;19.498;2023-02-04T12:29:12;4.90;99.90
45137;DHT22;30894;51.740;19.498;2023-02-04T12:31:41;5.30;99.90
45137;DHT22;30894;51.740;19.498;2023-02-04T12:34:29;5.80;99.90
45137;DHT22;30894;51.740;19.498;2023-02-04T12:37:04;6.10;99.90
45137;DHT22;30894;51.740;19.498;2023-02-04T12:39:32;6.20;99.90
45137;DHT22;30894;51.740;19.498;2023-02-04T12:41:58;6.80;99.90
45137;DHT22;30894;51.740;19.498;2023-02-04T12:44:30;7.60;99.90
45137;DHT22;30894;51.740;19.498;2023-02-04T12:47:07;7.80;99.90
45137;DHT22;30894;51.740;19.498;2023-02-04T12:49:33;7.20;99.90
45137;DHT22;30894;51.740;19.498;2023-02-04T12:52:01;6.90;99.90
45137;DHT22;30894;51.740;19.498;2023-02-04T12:54:31;6.40;99.90
45137;DHT22;30894;51.740;19.498;2023-02-04T12:56:58;5.90;99.90
45137;DHT22;30894;51.740;19.498;2023-02-04T12:59:27;5.50;99.90
45137;DHT22;30894;51.740;19.498;2023-02-04T13:01:57;5.10;99.90
45137;DHT22;30894;51.740;19.498;2023-02-04T13:04:26;4.80;99.90
45137;DHT22;30894;51.740;19.498;2023-02-04T13:06:53;4.40;99.90
45137;DHT22;30894;51.740;19.498;2023-02-04T13:09:20;4.20;99.90
45137;DHT22;30894;51.740;19.498;2023-02-04T13:11:49;4.00;99.90
45137;DHT22;30894;51.740;19.498;2023-02-04T13:14:15;3.70;99.90
45137;DHT22;30894;51.740;19.498;2023-02-04T13:16:51;3.50;99.90
45137;DHT22;30894;51.740;19.498;2023-02-04T13:19:18;3.40;99.90
45137;DHT22;30894;51.740;19.498;2023-02-04T13:21:45;3.20;99.90
45137;DHT22;30894;51.740;19.498;2023-02-04T13:24:14;3.10;99.90
45137;DHT22;30894;51.740;19.498;2023-02-04T13:26:49;3.00;99.90
45137;DHT22;30894;51.740;19.498;2023-02-04T13:29:17;2.80;99.90
45137;DHT22;30894;51.740;19.498;2023-02-04T13:31:44;2.80;99.90
45137;DHT22;30894;51.740;19.498;2023-02-04T13:34:12;2.70;99.90
45137;DHT22;30894;51.740;19.498;2023-02-04T13:36:47;2.60;99.90
45137;DHT22;30894;51.740;19.498;2023-02-04T13:39:15;2.40;99.90
45137;DHT22;30894;51.740;19.498;2023-02-04T13:41:45;2.30;99.90
45137;DHT22;30894;51.740;19.498;2023-02-04T13:44:11;2.20;99.90
45137;DHT22;30894;51.740;19.498;2023-02-04T13:46:38;2.10;99.90
45137;DHT22;30894;51.740;19.498;2023-02-04T13:49:05;2.10;99.90
45137;DHT22;30894;51.740;19.498;2023-02-04T13:51:31;2.10;99.90
45137;DHT22;30894;51.740;19.498;2023-02-04T13:53:57;2.00;99.90
45137;DHT22;30894;51.740;19.498;2023-02-04T13:56:26;1.90;99.90
45137;DHT22;30894;51.740;19.498;2023-02-04T13:58:53;1.90;99.90
45137;DHT22;30894;51.740;19.498;2023-02-04T14:01:21;1.90;99.90
45137;DHT22;30894;51.740;19.498;2023-02-04T14:07:33;1.90;99.90
45137;DHT22;30894;51.740;19.498;2023-02-04T14:10:01;1.90;99.90
45137;DHT22;30894;51.740;19.498;2023-02-04T14:12:28;1.80;99.90
45137;DHT22;30894;51.740;19.498;2023-02-04T14:14:55;1.80;99.90
45137;DHT22;30894;51.740;19.498;2023-02-04T14:17:22;1.70;99.90
45137;DHT22;30894;51.740;19.498;2023-02-04T14:19:49;1.70;99.90
45137;DHT22;30894;51.740;19.498;2023-02-04T14:22:15;1.60;99.90
45137;DHT22;30894;51.740;19.498;2023-02-04T14:24:46;1.60;99.90
45137;DHT22;30894;51.740;19.498;2023-02-04T14:27:17;1.60;99.90
45137;DHT22;30894;51.740;19.498;2023-02-04T14:29:45;1.50;99.90
45137;DHT22;30894;51.740;19.498;2023-02-04T14:32:12;1.50;99.90
45137;DHT22;30894;51.740;19.498;2023-02-04T14:34:39;1.40;99.90
45137;DHT22;30894;51.740;19.498;2023-02-04T14:37:06;1.40;99.90
45137;DHT22;30894;51.740;19.498;2023-02-04T14:39:32;1.30;99.90
45137;DHT22;30894;51.740;19.498;2023-02-04T14:41:59;1.30;99.90
45137;DHT22;30894;51.740;19.498;2023-02-04T14:44:25;1.20;99.90
45137;DHT22;30894;51.740;19.498;2023-02-04T14:46:52;1.20;99.90
45137;DHT22;30894;51.740;19.498;2023-02-04T14:49:29;1.20;99.90
45137;DHT22;30894;51.740;19.498;2023-02-04T14:51:58;1.20;99.90
45137;DHT22;30894;51.740;19.498;2023-02-04T14:54:24;1.10;99.90
45137;DHT22;30894;51.740;19.498;2023-02-04T14:56:51;1.10;99.90
45137;DHT22;30894;51.740;19.498;2023-02-04T14:59:17;1.10;99.90
45137;DHT22;30894;51.740;19.498;2023-02-04T15:01:44;1.00;99.90
45137;DHT22;30894;51.740;19.498;2023-02-04T15:04:11;1.00;99.90
45137;DHT22;30894;51.740;19.498;2023-02-04T15:06:38;0.90;99.90
45137;DHT22;30894;51.740;19.498;2023-02-04T15:09:22;0.90;99.90
45137;DHT22;30894;51.740;19.498;2023-02-04T15:11:49;0.80;99.90
45137;DHT22;30894;51.740;19.498;2023-02-04T15:14:16;0.80;99.90
45137;DHT22;30894;51.740;19.498;2023-02-04T15:16:43;0.80;99.90
45137;DHT22;30894;51.740;19.498;2023-02-04T15:19:17;0.80;99.90
45137;DHT22;30894;51.740;19.498;2023-02-04T15:21:44;0.80;99.90
45137;DHT22;30894;51.740;19.498;2023-02-04T15:24:11;0.70;99.90
45137;DHT22;30894;51.740;19.498;2023-02-04T15:26:38;0.70;99.90
45137;DHT22;30894;51.740;19.498;2023-02-04T15:29:05;0.70;99.90
45137;DHT22;30894;51.740;19.498;2023-02-04T15:31:31;0.70;99.90
45137;DHT22;30894;51.740;19.498;2023-02-04T15:33:58;0.70;99.90
45137;DHT22;30894;51.740;19.498;2023-02-04T15:36:25;0.70;99.90
45137;DHT22;30894;51.740;19.498;2023-02-04T15:38:51;0.60;99.90
45137;DHT22;30894;51.740;19.498;2023-02-04T15:41:17;0.60;99.90
45137;DHT22;30894;51.740;19.498;2023-02-04T15:43:44;0.60;99.90
45137;DHT22;30894;51.740;19.498;2023-02-04T15:46:14;0.60;99.90
45137;DHT22;30894;51.740;19.498;2023-02-04T15:48:40;0.60;99.90
45137;DHT22;30894;51.740;19.498;2023-02-04T15:51:10;0.60;99.90
45137;DHT22;30894;51.740;19.498;2023-02-04T15:53:53;0.60;99.90
45137;DHT22;30894;51.740;19.498;2023-02-04T15:56:19;0.60;99.90
45137;DHT22;30894;51.740;19.498;2023-02-04T15:58:46;0.50;99.90
45137;DHT22;30894;51.740;19.498;2023-02-04T16:01:14;0.50;99.90
45137;DHT22;30894;51.740;19.498;2023-02-04T16:03:46;0.50;99.90
45137;DHT22;30894;51.740;19.498;2023-02-04T16:06:14;0.40;99.90
45137;DHT22;30894;51.740;19.498;2023-02-04T16:08:45;0.40;99.90
45137;DHT22;30894;51.740;19.498;2023-02-04T16:11:19;0.40;99.90
45137;DHT22;30894;51.740;19.498;2023-02-04T16:13:47;0.40;99.90
45137;DHT22;30894;51.740;19.498;2023-02-04T16:16:17;0.40;99.90
45137;DHT22;30894;51.740;19.498;2023-02-04T16:18:43;0.30;99.90
45137;DHT22;30894;51.740;19.498;2023-02-04T16:21:10;0.30;99.90
45137;DHT22;30894;51.740;19.498;2023-02-04T16:23:36;0.30;99.90
45137;DHT22;30894;51.740;19.498;2023-02-04T16:26:05;0.30;99.90
45137;DHT22;30894;51.740;19.498;2023-02-04T16:28:33;0.30;99.90
45137;DHT22;30894;51.740;19.498;2023-02-04T16:31:06;0.30;99.90
45137;DHT22;30894;51.740;19.498;2023-02-04T16:33:39;0.20;99.90
45137;DHT22;30894;51.740;19.498;2023-02-04T16:36:10;0.10;99.90
45137;DHT22;30894;51.740;19.498;2023-02-04T16:38:39;-0.10;99.90
45137;DHT22;30894;51.740;19.498;2023-02-04T16:41:08;-0.10;99.90
45137;DHT22;30894;51.740;19.498;2023-02-04T16:43:35;-0.20;99.90
45137;DHT22;30894;51.740;19.498;2023-02-04T16:46:03;-0.20;99.90
45137;DHT22;30894;51.740;19.498;2023-02-04T16:48:31;-0.30;99.90
45137;DHT22;30894;51.740;19.498;2023-02-04T16:51:02;-0.40;99.90
45137;DHT22;30894;51.740;19.498;2023-02-04T16:53:28;-0.50;99.90
45137;DHT22;30894;51.740;19.498;2023-02-04T16:55:55;-0.60;99.90
45137;DHT22;30894;51.740;19.498;2023-02-04T16:58:28;-0.50;99.90
45137;DHT22;30894;51.740;19.498;2023-02-04T17:00:57;-0.60;99.90
45137;DHT22;30894;51.740;19.498;2023-02-04T17:03:24;-0.50;99.90
45137;DHT22;30894;51.740;19.498;2023-02-04T17:05:53;-0.60;99.90
45137;DHT22;30894;51.740;19.498;2023-02-04T17:08:23;-0.50;99.90
45137;DHT22;30894;51.740;19.498;2023-02-04T17:10:51;-0.40;99.90
45137;DHT22;30894;51.740;19.498;2023-02-04T17:13:38;-0.40;99.90
45137;DHT22;30894;51.740;19.498;2023-02-04T17:16:05;-0.30;99.90
45137;DHT22;30894;51.740;19.498;2023-02-04T17:18:31;-0.20;99.90
45137;DHT22;30894;51.740;19.498;2023-02-04T17:21:00;-0.20;99.90
45137;DHT22;30894;51.740;19.498;2023-02-04T17:23:27;-0.20;99.90
45137;DHT22;30894;51.740;19.498;2023-02-04T17:25:54;-0.20;99.90
45137;DHT22;30894;51.740;19.498;2023-02-04T17:28:20;-0.20;99.90
45137;DHT22;30894;51.740;19.498;2023-02-04T17:30:48;-0.20;99.90
45137;DHT22;30894;51.740;19.498;2023-02-04T17:33:17;-0.20;99.90
45137;DHT22;30894;51.740;19.498;2023-02-04T17:35:43;-0.20;99.90
45137;DHT22;30894;51.740;19.498;2023-02-04T17:38:23;-0.30;99.90
45137;DHT22;30894;51.740;19.498;2023-02-04T17:40:49;-0.40;99.90
45137;DHT22;30894;51.740;19.498;2023-02-04T17:43:16;-0.50;99.90
45137;DHT22;30894;51.740;19.498;2023-02-04T17:45:43;-0.50;99.90
45137;DHT22;30894;51.740;19.498;2023-02-04T17:48:09;-0.50;99.90
45137;DHT22;30894;51.740;19.498;2023-02-04T17:50:41;-0.60;99.90
45137;DHT22;30894;51.740;19.498;2023-02-04T17:53:10;-0.70;99.90
45137;DHT22;30894;51.740;19.498;2023-02-04T17:55:38;-0.60;99.90
45137;DHT22;30894;51.740;19.498;2023-02-04T17:58:14;-0.50;99.90
45137;DHT22;30894;51.740;19.498;2023-02-04T18:00:46;-0.50;99.90
45137;DHT22;30894;51.740;19.498;2023-02-04T18:03:19;-0.50;99.90
45137;DHT22;30894;51.740;19.498;2023-02-04T18:06:15;-0.60;99.90
45137;DHT22;30894;51.740;19.498;2023-02-04T18:08:50;-0.60;99.90
45137;DHT22;30894;51.740;19.498;2023-02-04T18:11:38;-0.60;99.90
45137;DHT22;30894;51.740;19.498;2023-02-04T18:14:42;-0.60;99.90
45137;DHT22;30894;51.740;19.498;2023-02-04T18:17:31;-0.60;99.90
45137;DHT22;30894;51.740;19.498;2023-02-04T18:19:57;-0.50;99.90
45137;DHT22;30894;51.740;19.498;2023-02-04T18:22:28;-0.40;99.90
45137;DHT22;30894;51.740;19.498;2023-02-04T18:25:26;-0.40;99.90
45137;DHT22;30894;51.740;19.498;2023-02-04T18:28:00;-0.40;99.90
45137;DHT22;30894;51.740;19.498;2023-02-04T18:30:29;-0.40;99.90
45137;DHT22;30894;51.740;19.498;2023-02-04T18:33:19;-0.40;99.90
45137;DHT22;30894;51.740;19.498;2023-02-04T18:36:31;-0.40;99.90
45137;DHT22;30894;51.740;19.498;2023-02-04T18:39:26;-0.40;99.90
45137;DHT22;30894;51.740;19.498;2023-02-04T18:41:59;-0.40;99.90
45137;DHT22;30894;51.740;19.498;2023-02-04T18:44:42;-0.40;99.90
45137;DHT22;30894;51.740;19.498;2023-02-04T18:47:32;-0.40;99.90
45137;DHT22;30894;51.740;19.498;2023-02-04T18:56:08;-0.40;99.90
45137;DHT22;30894;51.740;19.498;2023-02-04T18:58:46;-0.40;99.90
45137;DHT22;30894;51.740;19.498;2023-02-04T19:01:24;-0.40;99.90
45137;DHT22;30894;51.740;19.498;2023-02-04T19:04:01;-0.50;99.90
45137;DHT22;30894;51.740;19.498;2023-02-04T19:06:38;-0.50;99.90
45137;DHT22;30894;51.740;19.498;2023-02-04T19:09:23;-0.40;99.90
45137;DHT22;30894;51.740;19.498;2023-02-04T19:11:59;-0.40;99.90
45137;DHT22;30894;51.740;19.498;2023-02-04T19:14:41;-0.30;99.90
45137;DHT22;30894;51.740;19.498;2023-02-04T19:17:23;-0.30;99.90
45137;DHT22;30894;51.740;19.498;2023-02-04T19:27:53;-0.30;99.90
45137;DHT22;30894;51.740;19.498;2023-02-04T19:30:59;-0.20;99.90
45137;DHT22;30894;51.740;19.498;2023-02-04T19:33:40;-0.30;99.90
45137;DHT22;30894;51.740;19.498;2023-02-04T19:36:38;-0.30;99.90
45137;DHT22;30894;51.740;19.498;2023-02-04T19:39:33;-0.30;99.90
45137;DHT22;30894;51.740;19.498;2023-02-04T19:42:39;-0.40;99.90
45137;DHT22;30894;51.740;19.498;2023-02-04T19:45:21;-0.30;99.90
45137;DHT22;30894;51.740;19.498;2023-02-04T19:47:55;-0.40;99.90
45137;DHT22;30894;51.740;19.498;2023-02-04T19:50:31;-0.30;99.90
45137;DHT22;30894;51.740;19.498;2023-02-04T19:55:45;-0.40;99.90
45137;DHT22;30894;51.740;19.498;2023-02-04T19:58:17;-0.40;99.90
45137;DHT22;30894;51.740;19.498;2023-02-04T20:01:03;-0.40;99.90
45137;DHT22;30894;51.740;19.498;2023-02-04T20:03:51;-0.40;99.90
45137;DHT22;30894;51.740;19.498;2023-02-04T20:06:39;-0.30;99.90
45137;DHT22;30894;51.740;19.498;2023-02-04T20:09:16;-0.30;99.90
45137;DHT22;30894;51.740;19.498;2023-02-04T20:14:44;-0.30;99.90
45137;DHT22;30894;51.740;19.498;2023-02-04T20:17:46;-0.40;99.90
45137;DHT22;30894;51.740;19.498;2023-02-04T20:20:37;-0.40;99.90
45137;DHT22;30894;51.740;19.498;2023-02-04T20:23:34;-0.40;99.90
45137;DHT22;30894;51.740;19.498;2023-02-04T20:26:25;-0.40;99.90
45137;DHT22;30894;51.740;19.498;2023-02-04T20:29:21;-0.40;99.90
45137;DHT22;30894;51.740;19.498;2023-02-04T20:31:54;-0.40;99.90
45137;DHT22;30894;51.740;19.498;2023-02-04T20:34:22;-0.50;99.90
45137;DHT22;30894;51.740;19.498;2023-02-04T20:36:49;-0.40;99.90
45137;DHT22;30894;51.740;19.498;2023-02-04T20:39:46;-0.40;99.90
45137;DHT22;30894;51.740;19.498;2023-02-04T20:51:36;-0.60;99.90
45137;DHT22;30894;51.740;19.498;2023-02-04T20:54:13;-0.60;99.90
45137;DHT22;30894;51.740;19.498;2023-02-04T20:56:45;-0.70;99.90
45137;DHT22;30894;51.740;19.498;2023-02-04T21:01:38;-0.70;99.90
45137;DHT22;30894;51.740;19.498;2023-02-04T21:06:48;-0.80;99.90
45137;DHT22;30894;51.740;19.498;2023-02-04T21:09:29;-0.90;99.90
45137;DHT22;30894;51.740;19.498;2023-02-04T21:11:58;-1.00;99.90
45137;DHT22;30894;51.740;19.498;2023-02-04T21:14:27;-1.00;99.90
45137;DHT22;30894;51.740;19.498;2023-02-04T21:16:56;-1.10;99.90
45137;DHT22;30894;51.740;19.498;2023-02-04T21:19:25;-1.10;99.90
45137;DHT22;30894;51.740;19.498;2023-02-04T21:21:55;-1.10;99.90
45137;DHT22;30894;51.740;19.498;2023-02-04T21:24:27;-1.10;99.90
45137;DHT22;30894;51.740;19.498;2023-02-04T21:27:00;-1.00;99.90
45137;DHT22;30894;51.740;19.498;2023-02-04T21:29:30;-1.00;99.90
45137;DHT22;30894;51.740;19.498;2023-02-04T21:31:59;-0.90;99.90
45137;DHT22;30894;51.740;19.498;2023-02-04T21:34:27;-0.80;99.90
45137;DHT22;30894;51.740;19.498;2023-02-04T21:36:55;-0.80;99.90
45137;DHT22;30894;51.740;19.498;2023-02-04T21:39:25;-0.70;99.90
45137;DHT22;30894;51.740;19.498;2023-02-04T21:41:52;-0.70;99.90
45137;DHT22;30894;51.740;19.498;2023-02-04T21:44:36;-0.70;99.90
45137;DHT22;30894;51.740;19.498;2023-02-04T21:47:03;-0.70;99.90
45137;DHT22;30894;51.740;19.498;2023-02-04T21:49:33;-0.70;99.90
45137;DHT22;30894;51.740;19.498;2023-02-04T21:52:00;-0.70;99.90
45137;DHT22;30894;51.740;19.498;2023-02-04T21:54:27;-0.70;99.90
45137;DHT22;30894;51.740;19.498;2023-02-04T21:56:55;-0.70;99.90
45137;DHT22;30894;51.740;19.498;2023-02-04T21:59:26;-0.70;99.90
45137;DHT22;30894;51.740;19.498;2023-02-04T22:01:53;-0.60;99.90
45137;DHT22;30894;51.740;19.498;2023-02-04T22:04:52;-0.60;99.90
45137;DHT22;30894;51.740;19.498;2023-02-04T22:07:19;-0.60;99.90
45137;DHT22;30894;51.740;19.498;2023-02-04T22:09:46;-0.60;99.90
45137;DHT22;30894;51.740;19.498;2023-02-04T22:12:18;-0.60;99.90
45137;DHT22;30894;51.740;19.498;2023-02-04T22:14:48;-0.60;99.90
45137;DHT22;30894;51.740;19.498;2023-02-04T22:17:18;-0.70;99.90
45137;DHT22;30894;51.740;19.498;2023-02-04T22:19:45;-0.70;99.90
45137;DHT22;30894;51.740;19.498;2023-02-04T22:22:15;-0.70;99.90
45137;DHT22;30894;51.740;19.498;2023-02-04T22:24:44;-0.70;99.90
45137;DHT22;30894;51.740;19.498;2023-02-04T22:27:12;-0.80;99.90
45137;DHT22;30894;51.740;19.498;2023-02-04T22:29:40;-0.70;99.90
45137;DHT22;30894;51.740;19.498;2023-02-04T22:32:07;-0.80;99.90
45137;DHT22;30894;51.740;19.498;2023-02-04T22:34:36;-0.80;99.90
45137;DHT22;30894;51.740;19.498;2023-02-04T22:37:04;-0.80;99.90
45137;DHT22;30894;51.740;19.498;2023-02-04T22:39:35;-0.80;99.90
45137;DHT22;30894;51.740;19.498;2023-02-04T22:42:05;-0.80;99.90
45137;DHT22;30894;51.740;19.498;2023-02-04T22:44:33;-0.80;99.90
45137;DHT22;30894;51.740;19.498;2023-02-04T22:47:00;-0.80;99.90
45137;DHT22;30894;51.740;19.498;2023-02-04T22:49:29;-0.80;99.90
45137;DHT22;30894;51.740;19.498;2023-02-04T22:51:58;-0.80;99.90
45137;DHT22;30894;51.740;19.498;2023-02-04T22:54:24;-0.90;99.90
45137;DHT22;30894;51.740;19.498;2023-02-04T22:56:52;-1.00;99.90
45137;DHT22;30894;51.740;19.498;2023-02-04T22:59:27;-1.10;99.90
45137;DHT22;30894;51.740;19.498;2023-02-04T23:01:57;-1.30;99.90